Date,TemperatureHighF,TemperatureAvgF,TemperatureLowF,DewpointHighF,DewpointAvgF,DewpointLowF,HumidityHigh,HumidityAvg,HumidityLow,PressureMaxIn,PressureMinIn,WindSpeedMaxMPH,WindSpeedAvgMPH,GustSpeedMaxMPH,PrecipitationSumIn
2013-2-1,69,56,42,43,34,23,67,46,29,30.35,30.17,18,5,21,0.00
2013-2-2,75,59,47,54,47,37,88,65,38,30.30,30.17,17,5,21,0.00
2013-2-3,69,58,48,46,38,24,64,47,21,30.34,30.02,13,3,16,0.00
2013-2-4,74,62,55,59,54,46,89,76,52,30.03,29.80,18,6,22,0.00
2013-2-5,76,63,51,54,47,40,84,61,28,29.98,29.85,10,3,0,0.00
2013-2-6,72,66,60,60,57,54,87,73,58,29.95,29.82,15,5,15,0.02
2013-2-7,82,66,57,60,52,37,95,68,28,30.06,29.85,14,4,17,0.00
2013-2-8,66,56,45,47,34,23,75,49,21,30.23,30.07,13,3,15,0.00
2013-2-9,65,56,50,64,52,31,97,88,43,30.11,29.77,21,6,28,0.00
2013-2-10,67,60,52,65,45,28,97,61,27,30.01,29.73,23,4,27,0.10
2013-2-11,57,53,48,47,42,34,92,65,44,30.11,29.97,17,4,21,0.01
2013-2-12,70,56,48,55,44,24,97,72,24,30.03,29.83,17,4,20,0.03
2013-2-13,60,47,36,39,33,26,86,60,28,30.17,30.03,17,4,20,0.00
2013-2-14,70,54,42,40,36,31,76,53,25,30.14,30.00,13,6,15,0.00
2013-2-15,59,50,40,39,36,24,77,59,46,30.40,30.05,15,5,19,0.00
2013-2-16,66,48,35,29,25,22,59,43,23,30.48,30.24,11,3,13,0.00
2013-2-17,68,56,47,49,35,25,73,45,31,30.24,29.96,26,11,29,0.00
2013-2-18,80,65,56,58,46,24,84,57,15,30.08,29.82,25,9,31,0.00
2013-2-19,65,55,44,34,30,21,60,39,20,30.27,30.07,17,4,18,0.00
2013-2-20,62,54,50,61,45,30,97,73,40,30.12,29.66,19,5,22,0.03
2013-2-21,76,66,57,64,41,17,97,52,11,29.86,29.55,22,7,29,0.00
2013-2-22,57,49,40,38,32,22,81,54,27,30.06,29.81,13,4,14,0.00
2013-2-23,69,51,36,38,32,28,73,50,26,30.09,29.90,11,2,12,0.00
2013-2-24,71,61,46,57,49,35,90,65,45,29.95,29.61,20,7,23,0.00
2013-2-25,60,54,44,59,36,20,97,56,22,29.83,29.53,38,11,45,0.00
2013-2-26,66,50,37,31,29,26,67,45,24,29.98,29.83,22,5,26,0.00
2013-2-27,60,53,44,34,28,20,59,39,26,30.23,30.11,15,5,20,0.00
2013-2-28,59,47,39,29,26,22,65,47,25,30.35,30.21,12,3,16,0.00